Time,TemperatureF,DewpointF,PressureIn,WindDirection,WindDirectionDegrees,WindSpeedMPH,WindSpeedGustMPH,Humidity,HourlyPrecipIn,Conditions,Clouds,dailyrainin,SoftwareType,DateUTC
2013-08-03 00:05:00,79.0,60.3,29.54,WSW,247,13.0,16.0,53,0.00,,,0.00,Weather View 32 v70,2013-08-03 04:05:00,
2013-08-03 00:10:00,79.0,59.3,29.54,WSW,247,12.0,16.0,51,0.00,,,0.00,Weather View 32 v70,2013-08-03 04:10:00,
2013-08-03 00:15:00,79.0,59.8,29.54,WSW,247,7.0,16.0,52,0.00,,,0.00,Weather View 32 v70,2013-08-03 04:15:00,
2013-08-03 00:20:00,79.0,59.3,29.56,WSW,247,9.0,16.0,51,0.00,,,0.00,Weather View 32 v70,2013-08-03 04:20:00,
2013-08-03 00:25:00,79.0,59.3,29.56,WSW,247,11.0,16.0,51,0.00,,,0.00,Weather View 32 v70,2013-08-03 04:25:00,
2013-08-03 00:35:00,79.0,59.3,29.54,WSW,247,7.0,16.0,51,0.00,,,0.00,Weather View 32 v70,2013-08-03 04:35:00,
2013-08-03 00:40:00,79.0,59.3,29.54,WSW,247,7.0,15.0,51,0.00,,,0.00,Weather View 32 v70,2013-08-03 04:40:00,
2013-08-03 00:45:00,78.0,58.3,29.54,WSW,247,12.0,15.0,51,0.00,,,0.00,Weather View 32 v70,2013-08-03 04:45:00,
2013-08-03 00:55:00,78.0,58.3,29.56,WSW,247,7.0,15.0,51,0.00,,,0.00,Weather View 32 v70,2013-08-03 04:55:00,
2013-08-03 00:59:00,78.0,57.8,29.57,WSW,247,7.0,15.0,50,0.00,,,0.00,Weather View 32 v70,2013-08-03 04:59:00,
2013-08-03 01:04:00,78.0,57.8,29.57,WSW,247,9.0,15.0,50,0.00,,,0.00,Weather View 32 v70,2013-08-03 05:04:00,
2013-08-03 01:09:00,78.0,57.8,29.55,WSW,247,7.0,15.0,50,0.00,,,0.00,Weather View 32 v70,2013-08-03 05:09:00,
2013-08-03 01:15:00,78.0,57.8,29.55,WSW,247,9.0,13.0,50,0.00,,,0.00,Weather View 32 v70,2013-08-03 05:15:00,
2013-08-03 01:19:00,78.0,57.8,29.58,WSW,247,6.0,13.0,50,0.00,,,0.00,Weather View 32 v70,2013-08-03 05:19:00,
2013-08-03 01:24:00,78.0,57.8,29.58,WSW,247,7.0,13.0,50,0.00,,,0.00,Weather View 32 v70,2013-08-03 05:24:00,
2013-08-03 01:30:00,78.0,57.8,29.57,WSW,247,7.0,13.0,50,0.00,,,0.00,Weather View 32 v70,2013-08-03 05:30:00,
2013-08-03 01:35:00,78.0,57.8,29.57,WSW,247,6.0,13.0,50,0.00,,,0.00,Weather View 32 v70,2013-08-03 05:35:00,
2013-08-03 01:40:00,78.0,57.2,29.57,WSW,247,7.0,13.0,49,0.00,,,0.00,Weather View 32 v70,2013-08-03 05:40:00,
2013-08-03 01:45:00,78.0,57.2,29.57,WSW,247,7.0,12.0,49,0.00,,,0.00,Weather View 32 v70,2013-08-03 05:45:00,
2013-08-03 01:55:00,78.0,57.2,29.55,WSW,247,10.0,10.0,49,0.00,,,0.00,Weather View 32 v70,2013-08-03 05:55:00,
2013-08-03 02:00:00,78.0,56.7,29.55,WSW,247,6.0,10.0,48,0.00,,,0.00,Weather View 32 v70,2013-08-03 06:00:00,
2013-08-03 02:05:00,78.0,56.7,29.55,WSW,247,7.0,10.0,48,0.00,,,0.00,Weather View 32 v70,2013-08-03 06:05:00,
2013-08-03 02:10:00,78.0,56.7,29.55,WSW,247,6.0,10.0,48,0.00,,,0.00,Weather View 32 v70,2013-08-03 06:10:00,
2013-08-03 02:15:00,78.0,56.7,29.55,WSW,247,6.0,10.0,48,0.00,,,0.00,Weather View 32 v70,2013-08-03 06:15:00,
2013-08-03 02:20:00,78.0,55.5,29.54,WSW,247,9.0,10.0,46,0.00,,,0.00,Weather View 32 v70,2013-08-03 06:20:00,
2013-08-03 02:25:00,78.0,56.1,29.54,WSW,247,9.0,11.0,47,0.00,,,0.00,Weather View 32 v70,2013-08-03 06:25:00,
2013-08-03 02:30:00,78.0,55.5,29.53,WSW,247,11.0,13.0,46,0.00,,,0.00,Weather View 32 v70,2013-08-03 06:30:00,
2013-08-03 02:35:00,78.0,55.5,29.53,WSW,247,8.0,13.0,46,0.00,,,0.00,Weather View 32 v70,2013-08-03 06:35:00,
2013-08-03 02:40:00,78.0,55.5,29.53,WSW,247,9.0,13.0,46,0.00,,,0.00,Weather View 32 v70,2013-08-03 06:40:00,
2013-08-03 02:45:00,78.0,55.5,29.53,WSW,247,12.0,13.0,46,0.00,,,0.00,Weather View 32 v70,2013-08-03 06:45:00,
2013-08-03 02:49:00,78.0,55.5,29.53,WSW,247,12.0,13.0,46,0.00,,,0.00,Weather View 32 v70,2013-08-03 06:49:00,
2013-08-03 02:55:00,78.0,55.5,29.53,WSW,247,10.0,13.0,46,0.00,,,0.00,Weather View 32 v70,2013-08-03 06:55:00,
2013-08-03 03:05:00,78.0,55.5,29.53,WSW,247,10.0,13.0,46,0.00,,,0.00,Weather View 32 v70,2013-08-03 07:05:00,
2013-08-03 03:10:00,78.0,54.9,29.53,WSW,247,9.0,13.0,45,0.00,,,0.00,Weather View 32 v70,2013-08-03 07:10:00,
2013-08-03 03:15:00,78.0,54.9,29.53,WSW,247,10.0,13.0,45,0.00,,,0.00,Weather View 32 v70,2013-08-03 07:15:00,
2013-08-03 03:20:00,77.0,53.3,29.55,WSW,247,7.0,13.0,44,0.00,,,0.00,Weather View 32 v70,2013-08-03 07:20:00,
2013-08-03 03:25:00,77.0,54.0,29.55,WSW,247,9.0,13.0,45,0.00,,,0.00,Weather View 32 v70,2013-08-03 07:25:00,
2013-08-03 03:30:00,77.0,52.7,29.56,WSW,247,10.0,13.0,43,0.00,,,0.00,Weather View 32 v70,2013-08-03 07:30:00,
2013-08-03 03:35:00,77.0,54.0,29.56,WSW,247,9.0,13.0,45,0.00,,,0.00,Weather View 32 v70,2013-08-03 07:35:00,
2013-08-03 03:40:00,77.0,52.1,29.55,WSW,247,8.0,13.0,42,0.00,,,0.00,Weather View 32 v70,2013-08-03 07:40:00,
2013-08-03 03:45:00,77.0,53.3,29.55,WSW,247,7.0,13.0,44,0.00,,,0.00,Weather View 32 v70,2013-08-03 07:45:00,
2013-08-03 03:50:00,77.0,52.1,29.55,WSW,247,8.0,13.0,42,0.00,,,0.00,Weather View 32 v70,2013-08-03 07:50:00,
2013-08-03 03:55:00,77.0,53.3,29.55,WSW,247,8.0,12.0,44,0.00,,,0.00,Weather View 32 v70,2013-08-03 07:55:00,
2013-08-03 04:00:00,77.0,52.1,29.54,WSW,247,7.0,12.0,42,0.00,,,0.00,Weather View 32 v70,2013-08-03 08:00:00,
2013-08-03 04:10:00,77.0,52.1,29.54,WSW,247,8.0,12.0,42,0.00,,,0.00,Weather View 32 v70,2013-08-03 08:10:00,
2013-08-03 04:15:00,77.0,52.7,29.54,WSW,247,8.0,12.0,43,0.00,,,0.00,Weather View 32 v70,2013-08-03 08:15:00,
2013-08-03 04:20:00,77.0,52.7,29.54,WSW,247,7.0,12.0,43,0.00,,,0.00,Weather View 32 v70,2013-08-03 08:20:00,
2013-08-03 04:25:00,77.0,52.7,29.54,WSW,247,7.0,12.0,43,0.00,,,0.00,Weather View 32 v70,2013-08-03 08:25:00,
2013-08-03 04:30:00,77.0,52.7,29.53,WSW,247,8.0,12.0,43,0.00,,,0.00,Weather View 32 v70,2013-08-03 08:30:00,
2013-08-03 04:35:00,78.0,53.6,29.53,WSW,247,4.0,12.0,43,0.00,,,0.00,Weather View 32 v70,2013-08-03 08:35:00,
2013-08-03 04:40:00,78.0,53.6,29.53,WSW,247,7.0,11.0,43,0.00,,,0.00,Weather View 32 v70,2013-08-03 08:40:00,
2013-08-03 04:45:00,78.0,54.2,29.53,WSW,247,10.0,11.0,44,0.00,,,0.00,Weather View 32 v70,2013-08-03 08:45:00,
2013-08-03 04:50:00,78.0,53.6,29.53,SSE,157,5.0,11.0,43,0.00,,,0.00,Weather View 32 v70,2013-08-03 08:50:00,
2013-08-03 04:54:00,78.0,54.9,29.53,WSW,247,4.0,11.0,45,0.00,,,0.00,Weather View 32 v70,2013-08-03 08:54:00,
2013-08-03 05:00:00,78.0,54.2,29.54,WSW,247,6.0,11.0,44,0.00,,,0.00,Weather View 32 v70,2013-08-03 09:00:00,
2013-08-03 05:05:00,77.0,54.0,29.54,WSW,247,5.0,11.0,45,0.00,,,0.00,Weather View 32 v70,2013-08-03 09:05:00,
2013-08-03 05:14:00,77.0,54.0,29.55,WSW,247,6.0,11.0,45,0.00,,,0.00,Weather View 32 v70,2013-08-03 09:14:00,
2013-08-03 05:20:00,77.0,53.3,29.55,WSW,247,8.0,11.0,44,0.00,,,0.00,Weather View 32 v70,2013-08-03 09:20:00,
2013-08-03 05:25:00,77.0,54.0,29.55,WSW,247,7.0,11.0,45,0.00,,,0.00,Weather View 32 v70,2013-08-03 09:25:00,
2013-08-03 05:30:00,78.0,53.6,29.54,WSW,247,6.0,11.0,43,0.00,,,0.00,Weather View 32 v70,2013-08-03 09:30:00,
2013-08-03 05:35:00,77.0,53.3,29.54,WSW,247,7.0,11.0,44,0.00,,,0.00,Weather View 32 v70,2013-08-03 09:35:00,
2013-08-03 05:40:00,77.0,52.7,29.55,WSW,247,7.0,11.0,43,0.00,,,0.00,Weather View 32 v70,2013-08-03 09:40:00,
2013-08-03 05:45:00,77.0,53.3,29.55,WSW,247,7.0,11.0,44,0.00,,,0.00,Weather View 32 v70,2013-08-03 09:45:00,
2013-08-03 05:54:00,77.0,53.3,29.55,WSW,247,5.0,10.0,44,0.00,,,0.00,Weather View 32 v70,2013-08-03 09:54:00,
2013-08-03 05:59:00,77.0,52.1,29.57,WSW,247,7.0,10.0,42,0.00,,,0.00,Weather View 32 v70,2013-08-03 09:59:00,
2013-08-03 06:10:00,77.0,52.1,29.56,SSE,157,6.0,10.0,42,0.00,,,0.00,Weather View 32 v70,2013-08-03 10:10:00,
2013-08-03 06:15:00,77.0,52.7,29.56,SSE,157,7.0,10.0,43,0.00,,,0.00,Weather View 32 v70,2013-08-03 10:15:00,
2013-08-03 06:20:00,77.0,52.7,29.57,SSE,157,10.0,10.0,43,0.00,,,0.00,Weather View 32 v70,2013-08-03 10:20:00,
2013-08-03 06:25:00,77.0,53.3,29.57,SSE,157,9.0,10.0,44,0.00,,,0.00,Weather View 32 v70,2013-08-03 10:25:00,
2013-08-03 06:30:00,77.0,52.7,29.56,WSW,247,6.0,10.0,43,0.00,,,0.00,Weather View 32 v70,2013-08-03 10:30:00,
2013-08-03 06:40:00,77.0,52.7,29.55,WSW,247,7.0,10.0,43,0.00,,,0.00,Weather View 32 v70,2013-08-03 10:40:00,
2013-08-03 06:49:00,77.0,52.1,29.55,WSW,247,7.0,10.0,42,0.00,,,0.00,Weather View 32 v70,2013-08-03 10:49:00,
2013-08-03 06:54:00,77.0,52.7,29.55,WSW,247,6.0,10.0,43,0.00,,,0.00,Weather View 32 v70,2013-08-03 10:54:00,
2013-08-03 07:00:00,77.0,51.4,29.57,WSW,247,5.0,10.0,41,0.00,,,0.00,Weather View 32 v70,2013-08-03 11:00:00,
2013-08-03 07:05:00,77.0,52.7,29.57,WSW,247,7.0,10.0,43,0.00,,,0.00,Weather View 32 v70,2013-08-03 11:05:00,
2013-08-03 07:10:00,77.0,51.4,29.58,WSW,247,4.0,10.0,41,0.00,,,0.00,Weather View 32 v70,2013-08-03 11:10:00,
2013-08-03 07:20:00,78.0,52.3,29.56,WSW,247,6.0,10.0,41,0.00,,,0.00,Weather View 32 v70,2013-08-03 11:20:00,
2013-08-03 07:24:00,78.0,53.6,29.56,WSW,247,3.0,9.0,43,0.00,,,0.00,Weather View 32 v70,2013-08-03 11:24:00,
2013-08-03 07:30:00,78.0,52.3,29.55,WSW,247,6.0,9.0,41,0.00,,,0.00,Weather View 32 v70,2013-08-03 11:30:00,
2013-08-03 07:35:00,78.0,54.2,29.55,WSW,247,6.0,9.0,44,0.00,,,0.00,Weather View 32 v70,2013-08-03 11:35:00,
2013-08-03 07:45:00,78.0,55.5,29.57,WSW,247,7.0,11.0,46,0.00,,,0.00,Weather View 32 v70,2013-08-03 11:45:00,
2013-08-03 07:50:00,78.0,54.9,29.55,WSW,247,8.0,11.0,45,0.00,,,0.00,Weather View 32 v70,2013-08-03 11:50:00,
2013-08-03 07:55:00,78.0,56.1,29.55,WSW,247,9.0,12.0,47,0.00,,,0.00,Weather View 32 v70,2013-08-03 11:55:00,
2013-08-03 08:05:00,79.0,57.6,29.56,WSW,247,7.0,12.0,48,0.00,,,0.00,Weather View 32 v70,2013-08-03 12:05:00,
2013-08-03 08:10:00,79.0,57.0,29.55,WSW,247,6.0,12.0,47,0.00,,,0.00,Weather View 32 v70,2013-08-03 12:10:00,
2013-08-03 08:15:00,79.0,58.1,29.55,WSW,247,7.0,13.0,49,0.00,,,0.00,Weather View 32 v70,2013-08-03 12:15:00,
2013-08-03 08:20:00,80.0,59.1,29.57,WSW,247,7.0,13.0,49,0.00,,,0.00,Weather View 32 v70,2013-08-03 12:20:00,
2013-08-03 08:25:00,80.0,60.2,29.57,WSW,247,6.0,13.0,51,0.00,,,0.00,Weather View 32 v70,2013-08-03 12:25:00,
2013-08-03 08:30:00,80.0,60.2,29.55,WSW,247,9.0,15.0,51,0.00,,,0.00,Weather View 32 v70,2013-08-03 12:30:00,
2013-08-03 08:35:00,80.0,60.7,29.55,WSW,247,9.0,15.0,52,0.00,,,0.00,Weather View 32 v70,2013-08-03 12:35:00,
2013-08-03 08:40:00,80.0,60.7,29.54,WSW,247,9.0,15.0,52,0.00,,,0.00,Weather View 32 v70,2013-08-03 12:40:00,
2013-08-03 08:50:00,81.0,62.2,29.55,WSW,247,9.0,15.0,53,0.00,,,0.00,Weather View 32 v70,2013-08-03 12:50:00,
2013-08-03 08:55:00,81.0,63.2,29.55,WSW,247,10.0,15.0,55,0.00,,,0.00,Weather View 32 v70,2013-08-03 12:55:00,
2013-08-03 09:00:00,80.0,62.3,29.54,WSW,247,13.0,15.0,55,0.00,,,0.00,Weather View 32 v70,2013-08-03 13:00:00,
2013-08-03 09:04:00,81.0,63.2,29.54,WSW,247,10.0,15.0,55,0.00,,,0.00,Weather View 32 v70,2013-08-03 13:04:00,
2013-08-03 09:10:00,81.0,63.2,29.56,WSW,247,9.0,15.0,55,0.00,,,0.00,Weather View 32 v70,2013-08-03 13:10:00,
2013-08-03 09:14:00,81.0,64.3,29.56,WSW,247,12.0,15.0,57,0.00,,,0.00,Weather View 32 v70,2013-08-03 13:14:00,
2013-08-03 09:25:00,82.0,65.2,29.54,WSW,247,8.0,15.0,57,0.00,,,0.00,Weather View 32 v70,2013-08-03 13:25:00,
2013-08-03 09:30:00,82.0,65.2,29.53,WSW,247,7.0,15.0,57,0.00,,,0.00,Weather View 32 v70,2013-08-03 13:30:00,
2013-08-03 09:40:00,82.0,65.7,29.53,WSW,247,11.0,15.0,58,0.00,,,0.00,Weather View 32 v70,2013-08-03 13:40:00,
2013-08-03 09:50:00,82.0,66.2,29.54,WSW,247,7.0,15.0,59,0.00,,,0.00,Weather View 32 v70,2013-08-03 13:50:00,
2013-08-03 09:55:00,83.0,67.1,29.54,WSW,247,5.0,15.0,59,0.00,,,0.00,Weather View 32 v70,2013-08-03 13:55:00,
2013-08-03 10:00:00,82.0,65.7,29.56,SSE,157,6.0,15.0,58,0.00,,,0.00,Weather View 32 v70,2013-08-03 14:00:00,
2013-08-03 10:05:00,81.0,64.3,29.56,SSE,157,9.0,15.0,57,0.00,,,0.00,Weather View 32 v70,2013-08-03 14:05:00,
2013-08-03 10:10:00,80.0,62.8,29.55,SSE,157,11.0,15.0,56,0.00,,,0.00,Weather View 32 v70,2013-08-03 14:10:00,
2013-08-03 10:14:00,81.0,64.3,29.55,SSE,157,6.0,15.0,57,0.00,,,0.00,Weather View 32 v70,2013-08-03 14:14:00,
2013-08-03 10:24:00,82.0,65.7,29.55,WSW,247,2.0,14.0,58,0.00,,,0.00,Weather View 32 v70,2013-08-03 14:24:00,
2013-08-03 10:30:00,82.0,65.7,29.53,SSE,157,6.0,14.0,58,0.00,,,0.00,Weather View 32 v70,2013-08-03 14:30:00,
2013-08-03 10:35:00,83.0,67.1,29.53,SSE,157,9.0,14.0,59,0.00,,,0.00,Weather View 32 v70,2013-08-03 14:35:00,
2013-08-03 10:40:00,82.0,66.2,29.53,SSE,157,10.0,14.0,59,0.00,,,0.00,Weather View 32 v70,2013-08-03 14:40:00,
2013-08-03 10:45:00,81.0,64.8,29.53,SSE,157,7.0,14.0,58,0.00,,,0.00,Weather View 32 v70,2013-08-03 14:45:00,
2013-08-03 10:49:00,81.0,64.8,29.54,SSE,157,10.0,15.0,58,0.00,,,0.00,Weather View 32 v70,2013-08-03 14:49:00,
2013-08-03 10:54:00,82.0,66.2,29.54,SSE,157,8.0,15.0,59,0.00,,,0.00,Weather View 32 v70,2013-08-03 14:54:00,
2013-08-03 11:00:00,82.0,66.2,29.53,SSE,157,12.0,16.0,59,0.00,,,0.00,Weather View 32 v70,2013-08-03 15:00:00,
2013-08-03 11:05:00,82.0,66.2,29.53,SSE,157,10.0,16.0,59,0.00,,,0.00,Weather View 32 v70,2013-08-03 15:05:00,
2013-08-03 11:15:00,81.0,65.3,29.54,SSE,157,12.0,16.0,59,0.00,,,0.00,Weather View 32 v70,2013-08-03 15:15:00,
2013-08-03 11:20:00,81.0,64.8,29.55,SSE,157,15.0,19.0,58,0.00,,,0.00,Weather View 32 v70,2013-08-03 15:20:00,
2013-08-03 11:25:00,81.0,64.8,29.55,SSE,157,15.0,19.0,58,0.00,,,0.00,Weather View 32 v70,2013-08-03 15:25:00,
2013-08-03 11:30:00,81.0,64.3,29.53,SSE,157,13.0,19.0,57,0.00,,,0.00,Weather View 32 v70,2013-08-03 15:30:00,
2013-08-03 11:31:00,81.0,64.3,29.53,SSE,157,13.0,19.0,57,0.00,,,0.00,Weather View 32 v70,2013-08-03 15:31:00,
2013-08-03 11:40:00,82.0,65.7,29.53,SSE,157,10.0,21.0,58,0.00,,,0.00,Weather View 32 v70,2013-08-03 15:40:00,
2013-08-03 11:45:00,82.0,66.7,29.53,SSE,157,13.0,21.0,60,0.00,,,0.00,Weather View 32 v70,2013-08-03 15:45:00,
2013-08-03 11:49:00,82.0,66.2,29.52,SSE,157,10.0,21.0,59,0.00,,,0.00,Weather View 32 v70,2013-08-03 15:49:00,
2013-08-03 12:00:00,82.0,66.2,29.54,SSE,157,6.0,21.0,59,0.00,,,0.00,Weather View 32 v70,2013-08-03 16:00:00,
2013-08-03 12:05:00,82.0,66.2,29.54,SSE,157,10.0,21.0,59,0.00,,,0.00,Weather View 32 v70,2013-08-03 16:05:00,
2013-08-03 12:15:00,82.0,67.2,29.54,SSE,157,14.0,21.0,61,0.00,,,0.00,Weather View 32 v70,2013-08-03 16:15:00,
2013-08-03 12:20:00,83.0,67.6,29.52,SSE,157,15.0,21.0,60,0.00,,,0.00,Weather View 32 v70,2013-08-03 16:20:00,
2013-08-03 12:24:00,82.0,66.7,29.52,SSE,157,10.0,21.0,60,0.00,,,0.00,Weather View 32 v70,2013-08-03 16:24:00,
2013-08-03 12:30:00,82.0,66.2,29.55,SSE,157,12.0,21.0,59,0.00,,,0.00,Weather View 32 v70,2013-08-03 16:30:00,
2013-08-03 12:35:00,82.0,67.2,29.55,SSE,157,13.0,21.0,61,0.00,,,0.00,Weather View 32 v70,2013-08-03 16:35:00,
2013-08-03 12:40:00,82.0,67.2,29.54,SSE,157,13.0,19.0,61,0.00,,,0.00,Weather View 32 v70,2013-08-03 16:40:00,
2013-08-03 12:50:00,82.0,66.7,29.51,SSE,157,14.0,19.0,60,0.00,,,0.00,Weather View 32 v70,2013-08-03 16:50:00,
2013-08-03 12:55:00,83.0,68.1,29.51,SSE,157,15.0,19.0,61,0.00,,,0.00,Weather View 32 v70,2013-08-03 16:55:00,
2013-08-03 13:00:00,82.0,66.2,29.51,SSE,157,15.0,19.0,59,0.00,,,0.00,Weather View 32 v70,2013-08-03 17:00:00,
2013-08-03 13:05:00,82.0,66.7,29.51,SSE,157,17.0,19.0,60,0.00,,,0.00,Weather View 32 v70,2013-08-03 17:05:00,
2013-08-03 13:10:00,82.0,66.2,29.51,SSE,157,10.0,19.0,59,0.00,,,0.00,Weather View 32 v70,2013-08-03 17:10:00,
2013-08-03 13:15:00,82.0,66.2,29.51,SSE,157,15.0,19.0,59,0.00,,,0.00,Weather View 32 v70,2013-08-03 17:15:00,
2013-08-03 13:20:00,82.0,69.5,29.51,SSE,157,17.0,19.0,66,0.00,,,0.00,Weather View 32 v70,2013-08-03 17:20:00,
2013-08-03 13:24:00,82.0,66.2,29.51,SSE,157,8.0,22.0,59,0.00,,,0.00,Weather View 32 v70,2013-08-03 17:24:00,
2013-08-03 13:30:00,82.0,66.2,29.51,SSE,157,12.0,22.0,59,0.00,,,0.00,Weather View 32 v70,2013-08-03 17:30:00,
2013-08-03 13:35:00,82.0,66.2,29.51,SSE,157,15.0,22.0,59,0.00,,,0.00,Weather View 32 v70,2013-08-03 17:35:00,
2013-08-03 13:45:00,83.0,67.6,29.51,SSE,157,10.0,22.0,60,0.00,,,0.00,Weather View 32 v70,2013-08-03 17:45:00,
2013-08-03 13:50:00,83.0,67.1,29.50,SSE,157,8.0,22.0,59,0.00,,,0.00,Weather View 32 v70,2013-08-03 17:50:00,
2013-08-03 13:55:00,82.0,66.7,29.50,SSE,157,15.0,22.0,60,0.00,,,0.00,Weather View 32 v70,2013-08-03 17:55:00,
2013-08-03 14:00:00,82.0,66.2,29.51,SSE,157,15.0,22.0,59,0.00,,,0.00,Weather View 32 v70,2013-08-03 18:00:00,
2013-08-03 14:05:00,82.0,66.7,29.51,WSW,247,4.0,22.0,60,0.00,,,0.00,Weather View 32 v70,2013-08-03 18:05:00,
2013-08-03 14:10:00,83.0,67.1,29.52,SSE,157,16.0,22.0,59,0.00,,,0.00,Weather View 32 v70,2013-08-03 18:10:00,
2013-08-03 14:15:00,83.0,67.6,29.52,SSE,157,18.0,22.0,60,0.00,,,0.00,Weather View 32 v70,2013-08-03 18:15:00,
2013-08-03 14:19:00,83.0,70.9,29.50,SSE,157,10.0,22.0,67,0.00,,,0.00,Weather View 32 v70,2013-08-03 18:19:00,
2013-08-03 14:25:00,83.0,67.6,29.50,SSE,157,13.0,22.0,60,0.00,,,0.00,Weather View 32 v70,2013-08-03 18:25:00,
2013-08-03 14:33:00,83.0,70.9,29.50,SSE,157,13.0,22.0,67,0.00,,,0.00,Weather View 32 v70,2013-08-03 18:33:00,
2013-08-03 14:40:00,83.0,70.4,29.52,SSE,157,8.0,22.0,66,0.00,,,0.00,Weather View 32 v70,2013-08-03 18:40:00,
2013-08-03 14:45:00,83.0,68.1,29.52,SSE,157,12.0,22.0,61,0.00,,,0.00,Weather View 32 v70,2013-08-03 18:45:00,
2013-08-03 14:50:00,82.0,69.5,29.51,SSE,157,8.0,22.0,66,0.00,,,0.00,Weather View 32 v70,2013-08-03 18:50:00,
2013-08-03 14:55:00,82.0,66.2,29.51,SSE,157,12.0,22.0,59,0.00,,,0.00,Weather View 32 v70,2013-08-03 18:55:00,
2013-08-03 15:00:00,81.0,68.1,29.51,SSE,157,15.0,22.0,65,0.00,,,0.00,Weather View 32 v70,2013-08-03 19:00:00,
2013-08-03 15:05:00,81.0,65.3,29.51,SSE,157,12.0,22.0,59,0.00,,,0.00,Weather View 32 v70,2013-08-03 19:05:00,
2013-08-03 15:10:00,82.0,69.5,29.50,SSE,157,13.0,22.0,66,0.00,,,0.00,Weather View 32 v70,2013-08-03 19:10:00,
2013-08-03 15:20:00,82.0,70.3,29.51,SSE,157,9.0,21.0,68,0.00,,,0.00,Weather View 32 v70,2013-08-03 19:20:00,
2013-08-03 15:24:00,83.0,69.1,29.51,SSE,157,16.0,21.0,63,0.00,,,0.00,Weather View 32 v70,2013-08-03 19:24:00,
2013-08-03 15:30:00,83.0,71.7,29.51,SSE,157,12.0,21.0,69,0.00,,,0.00,Weather View 32 v70,2013-08-03 19:30:00,
2013-08-03 15:35:00,83.0,69.1,29.51,SSE,157,10.0,21.0,63,0.00,,,0.00,Weather View 32 v70,2013-08-03 19:35:00,
2013-08-03 15:45:00,83.0,68.6,29.50,SSE,157,15.0,21.0,62,0.00,,,0.00,Weather View 32 v70,2013-08-03 19:45:00,
2013-08-03 15:50:00,83.0,71.3,29.49,SSE,157,7.0,21.0,68,0.00,,,0.00,Weather View 32 v70,2013-08-03 19:50:00,
2013-08-03 15:55:00,83.0,68.6,29.49,SSE,157,19.0,21.0,62,0.00,,,0.00,Weather View 32 v70,2013-08-03 19:55:00,
2013-08-03 16:00:00,83.0,70.9,29.48,SSE,157,10.0,21.0,67,0.00,,,0.00,Weather View 32 v70,2013-08-03 20:00:00,
2013-08-03 16:09:00,83.0,70.9,29.47,SSE,157,9.0,21.0,67,0.00,,,0.00,Weather View 32 v70,2013-08-03 20:09:00,
2013-08-03 16:14:00,83.0,68.1,29.47,SSE,157,12.0,20.0,61,0.00,,,0.00,Weather View 32 v70,2013-08-03 20:14:00,
2013-08-03 16:20:00,83.0,70.9,29.48,SSE,157,10.0,19.0,67,0.00,,,0.00,Weather View 32 v70,2013-08-03 20:20:00,
2013-08-03 16:24:00,83.0,68.1,29.48,SSE,157,12.0,19.0,61,0.00,,,0.00,Weather View 32 v70,2013-08-03 20:24:00,
2013-08-03 16:30:00,82.0,69.5,29.46,SSE,157,6.0,19.0,66,0.00,,,0.00,Weather View 32 v70,2013-08-03 20:30:00,
2013-08-03 16:34:00,82.0,67.2,29.46,SSE,157,12.0,19.0,61,0.00,,,0.00,Weather View 32 v70,2013-08-03 20:34:00,
2013-08-03 16:40:00,82.0,69.9,29.49,SSE,157,10.0,19.0,67,0.00,,,0.00,Weather View 32 v70,2013-08-03 20:40:00,
2013-08-03 16:45:00,83.0,68.1,29.49,SSE,157,7.0,19.0,61,0.00,,,0.00,Weather View 32 v70,2013-08-03 20:45:00,
2013-08-03 16:50:00,83.0,70.9,29.46,SSE,157,13.0,19.0,67,0.00,,,0.00,Weather View 32 v70,2013-08-03 20:50:00,
2013-08-03 17:00:00,82.0,69.5,29.47,SSE,157,7.0,19.0,66,0.00,,,0.00,Weather View 32 v70,2013-08-03 21:00:00,
2013-08-03 17:04:00,81.0,65.3,29.47,SSE,157,13.0,19.0,59,0.00,,,0.00,Weather View 32 v70,2013-08-03 21:04:00,
2013-08-03 17:10:00,81.0,68.5,29.49,SSE,157,12.0,19.0,66,0.00,,,0.00,Weather View 32 v70,2013-08-03 21:10:00,
2013-08-03 17:15:00,81.0,65.3,29.49,SSE,157,9.0,19.0,59,0.00,,,0.00,Weather View 32 v70,2013-08-03 21:15:00,
2013-08-03 17:20:00,81.0,68.5,29.45,SSE,157,7.0,19.0,66,0.00,,,0.00,Weather View 32 v70,2013-08-03 21:20:00,
2013-08-03 17:25:00,81.0,65.3,29.45,SSE,157,13.0,19.0,59,0.00,,,0.00,Weather View 32 v70,2013-08-03 21:25:00,
2013-08-03 17:29:00,80.0,67.6,29.49,SSE,157,6.0,19.0,66,0.00,,,0.00,Weather View 32 v70,2013-08-03 21:29:00,
2013-08-03 17:35:00,80.0,64.3,29.49,SSE,157,12.0,19.0,59,0.00,,,0.00,Weather View 32 v70,2013-08-03 21:35:00,
2013-08-03 17:40:00,80.0,67.6,29.47,SSE,157,8.0,19.0,66,0.00,,,0.00,Weather View 32 v70,2013-08-03 21:40:00,
2013-08-03 17:50:00,81.0,68.5,29.45,SSE,157,8.0,19.0,66,0.00,,,0.00,Weather View 32 v70,2013-08-03 21:50:00,
2013-08-03 17:55:00,81.0,65.3,29.45,SSE,157,9.0,19.0,59,0.00,,,0.00,Weather View 32 v70,2013-08-03 21:55:00,
2013-08-03 18:00:00,81.0,68.5,29.45,SSE,157,11.0,18.0,66,0.00,,,0.00,Weather View 32 v70,2013-08-03 22:00:00,
2013-08-03 18:05:00,81.0,65.3,29.45,SSE,157,9.0,18.0,59,0.00,,,0.00,Weather View 32 v70,2013-08-03 22:05:00,
2013-08-03 18:09:00,81.0,68.5,29.44,SSE,157,10.0,18.0,66,0.00,,,0.00,Weather View 32 v70,2013-08-03 22:09:00,
2013-08-03 18:15:00,81.0,65.3,29.44,SSE,157,7.0,17.0,59,0.00,,,0.00,Weather View 32 v70,2013-08-03 22:15:00,
2013-08-03 18:20:00,81.0,68.1,29.44,SSE,157,10.0,17.0,65,0.00,,,0.00,Weather View 32 v70,2013-08-03 22:20:00,
2013-08-03 18:24:00,81.0,65.3,29.44,SSE,157,10.0,17.0,59,0.00,,,0.00,Weather View 32 v70,2013-08-03 22:24:00,
2013-08-03 18:30:00,81.0,68.5,29.44,SSE,157,10.0,17.0,66,0.00,,,0.00,Weather View 32 v70,2013-08-03 22:30:00,
2013-08-03 18:35:00,81.0,65.3,29.44,SSE,157,8.0,17.0,59,0.00,,,0.00,Weather View 32 v70,2013-08-03 22:35:00,
2013-08-03 18:45:00,81.0,65.3,29.44,SSE,157,7.0,17.0,59,0.00,,,0.00,Weather View 32 v70,2013-08-03 22:45:00,
2013-08-03 18:50:00,81.0,68.5,29.44,SSE,157,9.0,17.0,66,0.00,,,0.00,Weather View 32 v70,2013-08-03 22:50:00,
2013-08-03 18:55:00,81.0,65.3,29.44,SSE,157,13.0,17.0,59,0.00,,,0.00,Weather View 32 v70,2013-08-03 22:55:00,
2013-08-03 19:00:00,81.0,68.5,29.46,SSE,157,10.0,17.0,66,0.00,,,0.00,Weather View 32 v70,2013-08-03 23:00:00,
2013-08-03 19:05:00,81.0,65.3,29.46,SSE,157,9.0,17.0,59,0.00,,,0.00,Weather View 32 v70,2013-08-03 23:05:00,
2013-08-03 19:15:00,81.0,65.3,29.46,SSE,157,8.0,16.0,59,0.00,,,0.00,Weather View 32 v70,2013-08-03 23:15:00,
2013-08-03 19:20:00,81.0,68.1,29.44,SSE,157,6.0,16.0,65,0.00,,,0.00,Weather View 32 v70,2013-08-03 23:20:00,
2013-08-03 19:25:00,80.0,63.3,29.44,SSE,157,8.0,16.0,57,0.00,,,0.00,Weather View 32 v70,2013-08-03 23:25:00,
2013-08-03 19:29:00,80.0,66.7,29.44,SSE,157,8.0,16.0,64,0.00,,,0.00,Weather View 32 v70,2013-08-03 23:29:00,
2013-08-03 19:35:00,80.0,63.3,29.44,SSE,157,10.0,16.0,57,0.00,,,0.00,Weather View 32 v70,2013-08-03 23:35:00,
2013-08-03 19:45:00,80.0,62.3,29.45,SSE,157,6.0,16.0,55,0.00,,,0.00,Weather View 32 v70,2013-08-03 23:45:00,
2013-08-03 19:50:00,80.0,65.8,29.46,SSE,157,7.0,16.0,62,0.00,,,0.00,Weather View 32 v70,2013-08-03 23:50:00,
2013-08-03 19:55:00,79.0,60.9,29.46,SSE,157,12.0,15.0,54,0.00,,,0.00,Weather View 32 v70,2013-08-03 23:55:00,
2013-08-03 20:00:00,79.0,64.8,29.44,SSE,157,10.0,15.0,62,0.00,,,0.00,Weather View 32 v70,2013-08-04 00:00:00,
2013-08-03 20:05:00,79.0,60.3,29.44,SSE,157,6.0,15.0,53,0.00,,,0.00,Weather View 32 v70,2013-08-04 00:05:00,
2013-08-03 20:10:00,79.0,64.3,29.46,SSE,157,6.0,15.0,61,0.00,,,0.00,Weather View 32 v70,2013-08-04 00:10:00,
2013-08-03 20:15:00,79.0,59.8,29.46,SSE,157,12.0,15.0,52,0.00,,,0.00,Weather View 32 v70,2013-08-04 00:15:00,
2013-08-03 20:24:00,79.0,59.3,29.46,SSE,157,11.0,15.0,51,0.00,,,0.00,Weather View 32 v70,2013-08-04 00:24:00,
2013-08-03 20:35:00,79.0,58.7,29.45,SSE,157,5.0,15.0,50,0.00,,,0.00,Weather View 32 v70,2013-08-04 00:35:00,
2013-08-03 20:40:00,79.0,62.9,29.45,SSE,157,3.0,15.0,58,0.00,,,0.00,Weather View 32 v70,2013-08-04 00:40:00,
2013-08-03 20:45:00,79.0,58.1,29.45,SSE,157,10.0,15.0,49,0.00,,,0.00,Weather View 32 v70,2013-08-04 00:45:00,
2013-08-03 20:50:00,79.0,62.9,29.45,SSE,157,12.0,15.0,58,0.00,,,0.00,Weather View 32 v70,2013-08-04 00:50:00,
2013-08-03 20:55:00,79.0,58.1,29.45,SSE,157,10.0,15.0,49,0.00,,,0.00,Weather View 32 v70,2013-08-04 00:55:00,
2013-08-03 21:00:00,79.0,63.4,29.46,SSE,157,8.0,15.0,59,0.00,,,0.00,Weather View 32 v70,2013-08-04 01:00:00,
2013-08-03 21:05:00,79.0,58.1,29.46,SSE,157,6.0,15.0,49,0.00,,,0.00,Weather View 32 v70,2013-08-04 01:05:00,
2013-08-03 21:10:00,79.0,62.9,29.46,SSE,157,9.0,15.0,58,0.00,,,0.00,Weather View 32 v70,2013-08-04 01:10:00,
2013-08-03 21:15:00,79.0,58.1,29.46,SSE,157,9.0,15.0,49,0.00,,,0.00,Weather View 32 v70,2013-08-04 01:15:00,
2013-08-03 21:20:00,79.0,62.9,29.47,WSW,247,12.0,15.0,58,0.00,,,0.00,Weather View 32 v70,2013-08-04 01:20:00,
2013-08-03 21:29:00,79.0,63.9,29.49,WSW,247,10.0,15.0,60,0.00,,,0.00,Weather View 32 v70,2013-08-04 01:29:00,
2013-08-03 21:35:00,79.0,59.3,29.49,WSW,247,7.0,15.0,51,0.00,,,0.00,Weather View 32 v70,2013-08-04 01:35:00,
2013-08-03 21:40:00,79.0,63.9,29.49,WSW,247,7.0,14.0,60,0.00,,,0.00,Weather View 32 v70,2013-08-04 01:40:00,
2013-08-03 21:45:00,79.0,58.7,29.49,WSW,247,7.0,14.0,50,0.00,,,0.00,Weather View 32 v70,2013-08-04 01:45:00,
2013-08-03 21:50:00,79.0,62.9,29.47,WSW,247,9.0,14.0,58,0.00,,,0.00,Weather View 32 v70,2013-08-04 01:50:00,
2013-08-03 21:55:00,79.0,58.1,29.47,WSW,247,7.0,14.0,49,0.00,,,0.00,Weather View 32 v70,2013-08-04 01:55:00,
2013-08-03 22:00:00,79.0,63.4,29.47,WSW,247,7.0,14.0,59,0.00,,,0.00,Weather View 32 v70,2013-08-04 02:00:00,
2013-08-03 22:04:00,79.0,58.7,29.47,WSW,247,9.0,14.0,50,0.00,,,0.00,Weather View 32 v70,2013-08-04 02:04:00,
2013-08-03 22:09:00,79.0,63.9,29.48,WSW,247,8.0,13.0,60,0.00,,,0.00,Weather View 32 v70,2013-08-04 02:09:00,
2013-08-03 22:14:00,79.0,58.7,29.48,WSW,247,10.0,13.0,50,0.00,,,0.00,Weather View 32 v70,2013-08-04 02:14:00,
2013-08-03 22:25:00,79.0,59.3,29.47,WSW,247,9.0,12.0,51,0.00,,,0.00,Weather View 32 v70,2013-08-04 02:25:00,
2013-08-03 22:30:00,79.0,63.9,29.47,WSW,247,7.0,12.0,60,0.00,,,0.00,Weather View 32 v70,2013-08-04 02:30:00,
2013-08-03 22:35:00,79.0,58.7,29.47,WSW,247,6.0,12.0,50,0.00,,,0.00,Weather View 32 v70,2013-08-04 02:35:00,
2013-08-03 22:40:00,79.0,63.9,29.47,WSW,247,8.0,12.0,60,0.00,,,0.00,Weather View 32 v70,2013-08-04 02:40:00,
2013-08-03 22:45:00,78.0,57.8,29.47,WSW,247,8.0,12.0,50,0.00,,,0.00,Weather View 32 v70,2013-08-04 02:45:00,
2013-08-03 22:49:00,79.0,63.4,29.47,WSW,247,7.0,12.0,59,0.00,,,0.00,Weather View 32 v70,2013-08-04 02:49:00,
2013-08-03 22:55:00,78.0,57.8,29.47,WSW,247,7.0,12.0,50,0.00,,,0.00,Weather View 32 v70,2013-08-04 02:55:00,
2013-08-03 23:00:00,78.0,62.5,29.47,WSW,247,7.0,12.0,59,0.00,,,0.00,Weather View 32 v70,2013-08-04 03:00:00,
2013-08-03 23:05:00,78.0,57.8,29.47,WSW,247,9.0,12.0,50,0.00,,,0.00,Weather View 32 v70,2013-08-04 03:05:00,
2013-08-03 23:10:00,78.0,62.5,29.47,WSW,247,9.0,12.0,59,0.00,,,0.00,Weather View 32 v70,2013-08-04 03:10:00,
2013-08-03 23:20:00,78.0,62.5,29.47,WSW,247,8.0,11.0,59,0.00,,,0.00,Weather View 32 v70,2013-08-04 03:20:00,
2013-08-03 23:25:00,78.0,57.2,29.47,WSW,247,6.0,11.0,49,0.00,,,0.00,Weather View 32 v70,2013-08-04 03:25:00,
2013-08-03 23:29:00,78.0,62.0,29.48,WSW,247,7.0,11.0,58,0.00,,,0.00,Weather View 32 v70,2013-08-04 03:29:00,
2013-08-03 23:35:00,78.0,56.7,29.48,WSW,247,8.0,11.0,48,0.00,,,0.00,Weather View 32 v70,2013-08-04 03:35:00,
2013-08-03 23:40:00,78.0,62.0,29.50,WSW,247,6.0,11.0,58,0.00,,,0.00,Weather View 32 v70,2013-08-04 03:40:00,
2013-08-03 23:45:00,78.0,56.7,29.50,WSW,247,7.0,11.0,48,0.00,,,0.00,Weather View 32 v70,2013-08-04 03:45:00,
2013-08-03 23:50:00,78.0,62.0,29.49,WSW,247,9.0,11.0,58,0.00,,,0.00,Weather View 32 v70,2013-08-04 03:50:00,
2013-08-03 23:55:00,78.0,56.7,29.49,WSW,247,7.0,11.0,48,0.00,,,0.00,Weather View 32 v70,2013-08-04 03:55:00,